Time;durP1;ratioP1;P1;durP2;ratioP2;P2;SDS_P1;SDS_P2;PMS_P1;PMS_P2;Temp;Humidity;BMP_temperature;BMP_pressure;BME280_temperature;BME280_humidity;BME280_pressure;Samples;Min_cycle;Max_cycle;Signal;HPM_P1;HPM_P2
2023/09/03 00:00:15;;;;;;;9.13;8.32;;;;;;;;;;5030009;28;20021;-75
2023/09/03 00:02:40;;;;;;;9.35;8.32;;;;;;;;;;5038694;28;20029;-75
2023/09/03 00:05:06;;;;;;;9.73;8.75;;;;;;;;;;5036408;28;20029;-75
2023/09/03 00:07:32;;;;;;;9.30;8.48;;;;;;;;;;5036660;28;20102;-75
2023/09/03 00:09:57;;;;;;;9.45;8.50;;;;;;;;;;5038749;28;20020;-75
2023/09/03 00:12:22;;;;;;;9.75;8.85;;;;;;;;;;5036547;28;20060;-75
2023/09/03 00:14:48;;;;;;;10.60;8.40;;;;;;;;;;5034502;28;20029;-76
2023/09/03 00:17:14;;;;;;;9.77;8.98;;;;;;;;;;5037035;28;20455;-74
2023/09/03 00:19:41;;;;;;;9.70;8.80;;;;;;;;;;5036361;28;20529;-75
2023/09/03 00:22:06;;;;;;;10.07;9.27;;;;;;;;;;5035674;28;20071;-75
2023/09/03 00:24:32;;;;;;;9.68;8.82;;;;;;;;;;5036501;28;20397;-75
2023/09/03 00:26:58;;;;;;;9.27;8.48;;;;;;;;;;5035242;28;20119;-75
2023/09/03 00:29:23;;;;;;;9.82;8.90;;;;;;;;;;5036742;28;20428;-75
2023/09/03 00:31:49;;;;;;;9.63;8.82;;;;;;;;;;5036290;28;20037;-76
2023/09/03 00:34:14;;;;;;;9.77;8.88;;;;;;;;;;5035720;28;20132;-75
2023/09/03 00:36:40;;;;;;;9.85;8.95;;;;;;;;;;5038068;28;20032;-75
2023/09/03 00:39:06;;;;;;;9.52;8.57;;;;;;;;;;5037950;28;20024;-74
2023/09/03 00:41:31;;;;;;;9.25;8.27;;;;;;;;;;5036192;28;20621;-75
2023/09/03 00:43:57;;;;;;;9.80;9.00;;;;;;;;;;5033246;28;20029;-75
2023/09/03 00:46:22;;;;;;;8.77;8.00;;;;;;;;;;5032596;28;20340;-75
2023/09/03 00:48:48;;;;;;;9.45;8.65;;;;;;;;;;5035863;28;20053;-76
2023/09/03 00:51:13;;;;;;;10.50;9.60;;;;;;;;;;5037032;28;20115;-76
2023/09/03 00:53:40;;;;;;;9.82;8.93;;;;;;;;;;5037584;28;20108;-75
2023/09/03 00:56:06;;;;;;;10.57;9.48;;;;;;;;;;5036924;28;20459;-76
2023/09/03 00:58:32;;;;;;;9.50;8.63;;;;;;;;;;5036681;28;20029;-75
2023/09/03 01:00:58;;;;;;;8.93;8.13;;;;;;;;;;5036195;28;20119;-75
2023/09/03 01:03:26;;;;;;;9.65;8.57;;;;;;;;;;5014184;28;20128;-76
2023/09/03 01:05:51;;;;;;;9.93;9.02;;;;;;;;;;5035766;28;20094;-75
2023/09/03 01:08:17;;;;;;;9.85;8.88;;;;;;;;;;5038315;28;20028;-75
2023/09/03 01:10:42;;;;;;;9.48;8.57;;;;;;;;;;5037563;28;20017;-75
2023/09/03 01:13:12;;;;;;;9.88;8.98;;;;;;;;;;5034902;28;20152;-76
2023/09/03 01:15:40;;;;;;;8.95;8.15;;;;;;;;;;5032466;28;20032;-77
2023/09/03 01:18:11;;;;;;;9.48;8.57;;;;;;;;;;5029436;28;21502;-74
2023/09/03 01:20:39;;;;;;;8.77;7.97;;;;;;;;;;5015608;28;20032;-75
2023/09/03 01:23:15;;;;;;;8.93;8.13;;;;;;;;;;5022809;28;20025;-76
2023/09/03 01:25:59;;;;;;;9.60;8.80;;;;;;;;;;5035286;28;20060;-75
2023/09/03 01:28:25;;;;;;;9.48;8.63;;;;;;;;;;5036333;28;20029;-77
2023/09/03 01:30:51;;;;;;;9.30;8.50;;;;;;;;;;5035810;28;20028;-75
2023/09/03 01:33:17;;;;;;;10.00;9.10;;;;;;;;;;5038961;28;20036;-76
2023/09/03 01:35:43;;;;;;;9.75;8.75;;;;;;;;;;5015025;28;20436;-73
2023/09/03 01:38:09;;;;;;;9.27;8.38;;;;;;;;;;5035885;28;20033;-73
2023/09/03 01:40:34;;;;;;;9.65;8.75;;;;;;;;;;5036014;28;20017;-73
2023/09/03 01:42:59;;;;;;;9.13;8.23;;;;;;;;;;5037383;28;20032;-74
2023/09/03 01:45:30;;;;;;;10.05;9.15;;;;;;;;;;5036409;28;20031;-75
2023/09/03 01:48:02;;;;;;;8.80;8.00;;;;;;;;;;5036823;28;20159;-75
2023/09/03 01:50:48;;;;;;;9.32;8.48;;;;;;;;;;5035516;28;20048;-75
2023/09/03 01:53:27;;;;;;;9.02;8.23;;;;;;;;;;5019632;28;20475;-75
2023/09/03 01:55:54;;;;;;;9.32;8.52;;;;;;;;;;5035352;28;20440;-74
2023/09/03 01:58:21;;;;;;;9.40;8.60;;;;;;;;;;5043247;28;20112;-75
2023/09/03 02:00:48;;;;;;;13.20;8.18;;;;;;;;;;5041296;28;20490;-76
2023/09/03 02:03:13;;;;;;;9.07;8.27;;;;;;;;;;5045066;28;20021;-75
2023/09/03 02:05:39;;;;;;;9.00;8.20;;;;;;;;;;5041530;28;20051;-76
2023/09/03 02:08:04;;;;;;;9.23;8.43;;;;;;;;;;5042455;28;20013;-75
2023/09/03 02:10:29;;;;;;;10.05;9.13;;;;;;;;;;5043092;28;20033;-76
2023/09/03 02:12:55;;;;;;;8.82;8.02;;;;;;;;;;5013960;28;20526;-74
2023/09/03 02:15:20;;;;;;;10.05;9.07;;;;;;;;;;5040129;28;20128;-75
2023/09/03 02:17:45;;;;;;;9.30;8.30;;;;;;;;;;5033926;28;20041;-75
2023/09/03 02:20:11;;;;;;;8.80;8.10;;;;;;;;;;5042486;28;20320;-75
2023/09/03 02:22:36;;;;;;;8.98;8.18;;;;;;;;;;5041435;28;20505;-74
2023/09/03 02:25:02;;;;;;;8.38;7.68;;;;;;;;;;5041220;28;20017;-76
2023/09/03 02:27:27;;;;;;;9.25;8.35;;;;;;;;;;5041532;28;20028;-75
2023/09/03 02:29:53;;;;;;;8.35;7.57;;;;;;;;;;5038048;28;20044;-75
2023/09/03 02:32:18;;;;;;;8.60;7.90;;;;;;;;;;5034524;28;20101;-75
2023/09/03 02:34:43;;;;;;;9.32;8.40;;;;;;;;;;5042248;28;20377;-74
2023/09/03 02:37:09;;;;;;;9.50;8.60;;;;;;;;;;5043254;28;20043;-75
2023/09/03 02:39:34;;;;;;;9.35;8.50;;;;;;;;;;5034325;28;20016;-74
2023/09/03 02:42:01;;;;;;;8.98;8.18;;;;;;;;;;5037643;28;20032;-75
2023/09/03 02:44:27;;;;;;;9.43;8.32;;;;;;;;;;5041737;28;20056;-74
2023/09/03 02:46:52;;;;;;;9.13;8.15;;;;;;;;;;5043315;28;20017;-73
2023/09/03 02:49:18;;;;;;;9.23;8.32;;;;;;;;;;5041747;28;20098;-75
2023/09/03 02:51:43;;;;;;;9.50;8.50;;;;;;;;;;5031980;28;20522;-74
2023/09/03 02:54:08;;;;;;;8.52;7.82;;;;;;;;;;5044458;28;20033;-74
2023/09/03 02:56:35;;;;;;;9.38;8.50;;;;;;;;;;5041435;28;20080;-74
2023/09/03 02:59:00;;;;;;;8.13;7.43;;;;;;;;;;5044286;28;20048;-74
2023/09/03 03:01:26;;;;;;;9.30;8.50;;;;;;;;;;5042709;28;20036;-75
2023/09/03 03:03:51;;;;;;;10.13;9.13;;;;;;;;;;5042183;28;20108;-74
2023/09/03 03:06:16;;;;;;;9.52;7.50;;;;;;;;;;5042973;28;20118;-74
2023/09/03 03:08:42;;;;;;;9.55;8.75;;;;;;;;;;5038841;28;20033;-75
2023/09/03 03:11:09;;;;;;;8.95;8.15;;;;;;;;;;5037932;28;20021;-77
2023/09/03 03:13:34;;;;;;;9.85;8.93;;;;;;;;;;5039681;28;20044;-75
2023/09/03 03:16:03;;;;;;;11.07;7.57;;;;;;;;;;5039330;28;20025;-76
2023/09/03 03:18:29;;;;;;;8.38;7.65;;;;;;;;;;5039288;28;20143;-75
2023/09/03 03:21:03;;;;;;;9.23;8.40;;;;;;;;;;5032140;28;20021;-75
2023/09/03 03:23:28;;;;;;;9.77;8.68;;;;;;;;;;5024222;28;20395;-75
2023/09/03 03:25:53;;;;;;;9.38;8.57;;;;;;;;;;5027111;28;20048;-76
2023/09/03 03:28:19;;;;;;;9.20;8.35;;;;;;;;;;5032199;28;20030;-75
2023/09/03 03:30:44;;;;;;;9.73;8.93;;;;;;;;;;5026318;28;20049;-74
2023/09/03 03:33:09;;;;;;;8.90;8.20;;;;;;;;;;5008051;28;20037;-74
2023/09/03 03:35:35;;;;;;;9.23;8.38;;;;;;;;;;5027370;28;20025;-75
2023/09/03 03:38:01;;;;;;;10.00;9.00;;;;;;;;;;5026717;28;20363;-75
2023/09/03 03:40:26;;;;;;;9.40;8.50;;;;;;;;;;5028772;28;20555;-74
2023/09/03 03:42:51;;;;;;;9.55;8.70;;;;;;;;;;5027067;28;20153;-73
2023/09/03 03:45:17;;;;;;;9.50;8.57;;;;;;;;;;5027835;28;20028;-74
2023/09/03 03:47:42;;;;;;;9.77;8.85;;;;;;;;;;5027183;28;20452;-76
2023/09/03 03:50:08;;;;;;;10.85;8.32;;;;;;;;;;5027000;28;20049;-76
2023/09/03 03:52:33;;;;;;;9.18;8.38;;;;;;;;;;5026240;28;20043;-74
2023/09/03 03:54:58;;;;;;;9.95;9.05;;;;;;;;;;5009165;28;20076;-74
2023/09/03 03:57:24;;;;;;;9.43;8.48;;;;;;;;;;5028853;28;20035;-75
2023/09/03 03:59:49;;;;;;;9.75;8.10;;;;;;;;;;5026510;28;20078;-74
2023/09/03 04:02:14;;;;;;;9.73;8.82;;;;;;;;;;5025949;28;20037;-73
2023/09/03 04:04:40;;;;;;;9.95;9.05;;;;;;;;;;5027153;28;20033;-75
2023/09/03 04:07:05;;;;;;;10.52;8.70;;;;;;;;;;5026011;28;20075;-74
2023/09/03 04:09:31;;;;;;;9.68;8.85;;;;;;;;;;5026912;28;20034;-75
2023/09/03 04:11:56;;;;;;;10.07;9.07;;;;;;;;;;5027037;28;20116;-74
2023/09/03 04:14:21;;;;;;;10.20;9.18;;;;;;;;;;5025270;28;20457;-74
2023/09/03 04:16:47;;;;;;;10.18;8.60;;;;;;;;;;5008341;28;20056;-76
2023/09/03 04:19:12;;;;;;;9.02;8.23;;;;;;;;;;5026986;28;20061;-75
2023/09/03 04:21:37;;;;;;;10.60;9.52;;;;;;;;;;5034070;28;20033;-74
2023/09/03 04:24:03;;;;;;;10.20;9.07;;;;;;;;;;5039277;28;20016;-74
2023/09/03 04:26:28;;;;;;;10.05;9.05;;;;;;;;;;5036881;28;20025;-73
2023/09/03 04:28:54;;;;;;;11.27;9.18;;;;;;;;;;5036983;28;20037;-75
2023/09/03 04:31:19;;;;;;;9.63;8.82;;;;;;;;;;5037830;28;20056;-75
2023/09/03 04:33:45;;;;;;;10.55;9.30;;;;;;;;;;5037364;28;20325;-76
2023/09/03 04:36:10;;;;;;;9.60;8.80;;;;;;;;;;5037444;28;20021;-75
2023/09/03 04:38:36;;;;;;;10.02;9.13;;;;;;;;;;5036720;28;20976;-76
2023/09/03 04:41:02;;;;;;;10.25;9.35;;;;;;;;;;5037027;28;20025;-75
2023/09/03 04:43:29;;;;;;;11.18;10.10;;;;;;;;;;5035867;28;20497;-74
2023/09/03 04:45:54;;;;;;;11.32;10.32;;;;;;;;;;5038396;28;20158;-74
2023/09/03 04:48:20;;;;;;;11.05;9.57;;;;;;;;;;5038158;28;20045;-76
2023/09/03 04:50:46;;;;;;;10.45;9.40;;;;;;;;;;5038241;28;20017;-73
2023/09/03 04:53:14;;;;;;;10.18;9.18;;;;;;;;;;5037819;28;21139;-74
2023/09/03 04:55:40;;;;;;;10.65;9.55;;;;;;;;;;5037041;28;20178;-74
2023/09/03 04:58:05;;;;;;;9.80;8.90;;;;;;;;;;5037969;28;20112;-73
2023/09/03 05:00:31;;;;;;;10.88;9.25;;;;;;;;;;5034026;28;20178;-75
2023/09/03 05:02:57;;;;;;;10.85;8.70;;;;;;;;;;5028389;28;20040;-73
2023/09/03 05:05:22;;;;;;;10.27;9.18;;;;;;;;;;5036388;28;20424;-74
2023/09/03 05:07:47;;;;;;;10.45;9.55;;;;;;;;;;5037870;28;20482;-74
2023/09/03 05:10:14;;;;;;;10.75;8.82;;;;;;;;;;5036102;28;20025;-74
2023/09/03 05:12:40;;;;;;;10.63;8.65;;;;;;;;;;5036496;28;20059;-74
2023/09/03 05:15:09;;;;;;;10.32;9.07;;;;;;;;;;5037981;28;20032;-74
2023/09/03 05:17:34;;;;;;;10.07;9.18;;;;;;;;;;5035295;28;20035;-74
2023/09/03 05:20:00;;;;;;;11.18;9.20;;;;;;;;;;5037132;28;20424;-74
2023/09/03 05:22:25;;;;;;;9.63;8.63;;;;;;;;;;5038518;28;20455;-74
2023/09/03 05:24:50;;;;;;;9.45;8.55;;;;;;;;;;5036882;28;20033;-75
2023/09/03 05:27:16;;;;;;;10.10;9.18;;;;;;;;;;5037484;28;20024;-74
2023/09/03 05:29:41;;;;;;;10.23;9.13;;;;;;;;;;5027874;28;20054;-74
2023/09/03 05:32:06;;;;;;;10.15;9.18;;;;;;;;;;5022379;28;20365;-74
2023/09/03 05:34:32;;;;;;;9.63;8.73;;;;;;;;;;5024249;28;20064;-75
2023/09/03 05:36:57;;;;;;;9.55;8.70;;;;;;;;;;5035635;28;20340;-74
2023/09/03 05:39:23;;;;;;;10.07;9.18;;;;;;;;;;5024908;28;20025;-75
2023/09/03 05:41:48;;;;;;;10.32;9.32;;;;;;;;;;5007010;28;20078;-75
2023/09/03 05:44:15;;;;;;;11.30;9.57;;;;;;;;;;5025215;28;20108;-77
2023/09/03 05:46:41;;;;;;;11.63;10.52;;;;;;;;;;5027133;28;20035;-74
2023/09/03 05:49:06;;;;;;;10.80;9.73;;;;;;;;;;5026598;28;20363;-75
2023/09/03 05:51:32;;;;;;;10.80;9.80;;;;;;;;;;5037079;28;20112;-74
2023/09/03 05:53:57;;;;;;;10.48;9.48;;;;;;;;;;5035005;28;20126;-74
2023/09/03 05:56:23;;;;;;;12.10;11.00;;;;;;;;;;5031946;28;20029;-74
2023/09/03 05:58:50;;;;;;;11.88;10.77;;;;;;;;;;5035798;28;20044;-77
2023/09/03 06:01:15;;;;;;;11.63;10.43;;;;;;;;;;5037485;28;20109;-76
2023/09/03 06:03:40;;;;;;;10.85;9.95;;;;;;;;;;5026050;28;20428;-74
2023/09/03 06:06:07;;;;;;;10.73;9.82;;;;;;;;;;5029557;28;20021;-75
2023/09/03 06:08:33;;;;;;;12.90;11.80;;;;;;;;;;5034276;28;20032;-75
2023/09/03 06:10:59;;;;;;;12.35;11.23;;;;;;;;;;5033543;28;20071;-76
2023/09/03 06:13:28;;;;;;;12.15;10.95;;;;;;;;;;5028713;28;20056;-75
2023/09/03 06:15:54;;;;;;;10.70;9.70;;;;;;;;;;5037133;28;20028;-75
2023/09/03 06:18:19;;;;;;;10.00;9.10;;;;;;;;;;5037219;28;20028;-76
2023/09/03 06:20:45;;;;;;;10.52;9.32;;;;;;;;;;5034259;28;20040;-76
2023/09/03 06:23:15;;;;;;;10.90;10.00;;;;;;;;;;5031315;28;20112;-75
2023/09/03 06:25:41;;;;;;;10.98;10.07;;;;;;;;;;5026992;28;20119;-76
2023/09/03 06:28:06;;;;;;;10.60;9.50;;;;;;;;;;5038223;28;20104;-75
2023/09/03 06:30:31;;;;;;;10.98;9.98;;;;;;;;;;5033898;28;20033;-76
2023/09/03 06:32:57;;;;;;;10.38;9.48;;;;;;;;;;5035378;28;20128;-76
2023/09/03 06:35:22;;;;;;;9.90;9.10;;;;;;;;;;5036354;28;20025;-75
2023/09/03 06:37:48;;;;;;;9.23;8.52;;;;;;;;;;5036790;28;20360;-75
2023/09/03 06:40:14;;;;;;;9.93;9.02;;;;;;;;;;5035988;28;20040;-75
2023/09/03 06:42:41;;;;;;;9.23;8.38;;;;;;;;;;5038280;28;20048;-76
2023/09/03 06:45:06;;;;;;;9.55;8.75;;;;;;;;;;5040353;28;20024;-76
2023/09/03 06:47:32;;;;;;;8.75;7.97;;;;;;;;;;5029593;28;20031;-75
2023/09/03 06:49:57;;;;;;;9.27;8.57;;;;;;;;;;5026869;28;20056;-76
2023/09/03 06:52:23;;;;;;;8.73;7.93;;;;;;;;;;5030718;28;20029;-76
2023/09/03 06:54:49;;;;;;;8.30;7.70;;;;;;;;;;5038424;28;20526;-76
2023/09/03 06:57:14;;;;;;;8.80;8.10;;;;;;;;;;5041224;28;20310;-76
2023/09/03 06:59:40;;;;;;;8.73;8.02;;;;;;;;;;5038433;28;20110;-78
2023/09/03 07:02:06;;;;;;;9.00;8.27;;;;;;;;;;5031816;28;20459;-77
2023/09/03 07:04:31;;;;;;;8.75;8.05;;;;;;;;;;5039223;28;20025;-76
2023/09/03 07:06:57;;;;;;;9.82;8.93;;;;;;;;;;5041224;28;20029;-78
2023/09/03 07:09:22;;;;;;;9.45;8.65;;;;;;;;;;5040863;28;20025;-75
2023/09/03 07:11:48;;;;;;;10.45;9.45;;;;;;;;;;5040099;28;20025;-73
2023/09/03 07:14:13;;;;;;;9.50;8.70;;;;;;;;;;5037234;28;20021;-78
2023/09/03 07:16:38;;;;;;;12.43;11.43;;;;;;;;;;5040346;28;20021;-78
2023/09/03 07:19:03;;;;;;;17.23;15.80;;;;;;;;;;5038980;28;20029;-79
2023/09/03 07:21:29;;;;;;;26.15;23.75;;;;;;;;;;5028442;28;20029;-77
2023/09/03 07:23:56;;;;;;;19.00;17.25;;;;;;;;;;5025470;28;20381;-82
2023/09/03 07:26:21;;;;;;;17.77;16.27;;;;;;;;;;5028443;28;20032;-80
2023/09/03 07:28:47;;;;;;;14.23;12.98;;;;;;;;;;5028732;28;20032;-79
2023/09/03 07:31:12;;;;;;;12.63;11.52;;;;;;;;;;5026498;28;20040;-81
2023/09/03 07:33:39;;;;;;;12.20;11.25;;;;;;;;;;5030193;28;20507;-78
2023/09/03 07:36:11;;;;;;;9.90;9.10;;;;;;;;;;5037889;28;20036;-78
2023/09/03 07:38:37;;;;;;;8.52;7.70;;;;;;;;;;5038224;28;20045;-78
2023/09/03 07:41:02;;;;;;;8.40;7.75;;;;;;;;;;5032567;28;20024;-80
2023/09/03 07:43:27;;;;;;;8.88;8.05;;;;;;;;;;5025172;28;20412;-79
2023/09/03 07:45:53;;;;;;;8.40;7.63;;;;;;;;;;5030349;28;20036;-80
2023/09/03 07:48:18;;;;;;;8.25;7.45;;;;;;;;;;5037173;28;20054;-78
2023/09/03 07:50:44;;;;;;;8.35;7.65;;;;;;;;;;5036062;28;20029;-77
2023/09/03 07:53:09;;;;;;;8.48;7.78;;;;;;;;;;5037826;28;20045;-78
2023/09/03 07:55:34;;;;;;;10.38;9.48;;;;;;;;;;5039797;28;20032;-79
2023/09/03 07:58:00;;;;;;;9.18;8.40;;;;;;;;;;5039206;28;20125;-79
2023/09/03 08:00:25;;;;;;;8.10;7.30;;;;;;;;;;5038086;28;20087;-79
2023/09/03 08:02:50;;;;;;;7.07;6.47;;;;;;;;;;5040666;28;20029;-80
2023/09/03 08:05:17;;;;;;;7.22;6.53;;;;;;;;;;5038622;28;20021;-79
2023/09/03 08:07:42;;;;;;;8.95;6.05;;;;;;;;;;5040267;28;20027;-80
2023/09/03 08:10:08;;;;;;;7.10;6.50;;;;;;;;;;5039574;28;20119;-80
2023/09/03 08:12:33;;;;;;;7.03;6.38;;;;;;;;;;5039377;28;20087;-78
2023/09/03 08:14:58;;;;;;;6.78;5.65;;;;;;;;;;5039679;28;20701;-77
2023/09/03 08:17:26;;;;;;;7.07;6.47;;;;;;;;;;5038170;28;20060;-78
2023/09/03 08:19:51;;;;;;;10.07;7.00;;;;;;;;;;5038602;28;20025;-80
2023/09/03 08:22:17;;;;;;;6.10;5.60;;;;;;;;;;5039249;28;20035;-80
2023/09/03 08:24:42;;;;;;;6.47;5.88;;;;;;;;;;5039389;28;20025;-80
2023/09/03 08:27:08;;;;;;;5.82;5.32;;;;;;;;;;5033095;28;20490;-78
2023/09/03 08:29:33;;;;;;;6.32;5.82;;;;;;;;;;5029834;28;20033;-79
2023/09/03 08:31:59;;;;;;;6.25;5.75;;;;;;;;;;5040154;28;20136;-79
2023/09/03 08:34:24;;;;;;;6.28;5.68;;;;;;;;;;5035929;28;20064;-79
2023/09/03 08:36:50;;;;;;;6.32;5.70;;;;;;;;;;5035046;28;20021;-77
2023/09/03 08:39:15;;;;;;;5.43;4.93;;;;;;;;;;5032704;28;20329;-77
2023/09/03 08:41:40;;;;;;;5.55;5.15;;;;;;;;;;5029918;28;20032;-77
2023/09/03 08:44:10;;;;;;;5.28;4.88;;;;;;;;;;5034093;28;20028;-78
2023/09/03 08:46:36;;;;;;;5.20;4.80;;;;;;;;;;5038865;28;20087;-78
2023/09/03 08:49:02;;;;;;;6.13;5.63;;;;;;;;;;5036767;28;20123;-76
2023/09/03 08:51:28;;;;;;;6.43;4.93;;;;;;;;;;5037614;28;20051;-78
2023/09/03 08:53:55;;;;;;;4.72;4.38;;;;;;;;;;5037208;28;20033;-78
2023/09/03 08:56:21;;;;;;;8.10;7.60;;;;;;;;;;5037918;28;20444;-77
2023/09/03 08:58:46;;;;;;;7.07;4.70;;;;;;;;;;5037535;28;20051;-78
2023/09/03 09:01:13;;;;;;;4.85;4.45;;;;;;;;;;5037350;28;20021;-77
2023/09/03 09:03:38;;;;;;;4.70;4.30;;;;;;;;;;5038214;28;20029;-79
2023/09/03 09:06:06;;;;;;;5.13;4.72;;;;;;;;;;5035555;28;20087;-78
2023/09/03 09:08:32;;;;;;;5.38;4.88;;;;;;;;;;5039756;28;20107;-78
2023/09/03 09:10:59;;;;;;;5.03;4.53;;;;;;;;;;5038029;28;20112;-78
2023/09/03 09:13:25;;;;;;;5.10;4.63;;;;;;;;;;5037236;28;20082;-79
2023/09/03 09:15:50;;;;;;;5.35;4.80;;;;;;;;;;5037451;28;20359;-78
2023/09/03 09:18:16;;;;;;;4.60;4.20;;;;;;;;;;5038218;28;20055;-79
2023/09/03 09:20:42;;;;;;;5.00;4.60;;;;;;;;;;5038016;28;20048;-77
2023/09/03 09:23:08;;;;;;;4.25;3.95;;;;;;;;;;5039653;28;20028;-78
2023/09/03 09:25:34;;;;;;;4.78;4.38;;;;;;;;;;5037266;28;20347;-79
2023/09/03 09:28:08;;;;;;;4.53;3.90;;;;;;;;;;5038090;28;20401;-77
2023/09/03 09:30:33;;;;;;;4.65;4.32;;;;;;;;;;5038711;28;20429;-80
2023/09/03 09:33:06;;;;;;;4.85;4.03;;;;;;;;;;5037270;28;20041;-77
2023/09/03 09:35:32;;;;;;;5.45;4.57;;;;;;;;;;5036878;28;20539;-78
2023/09/03 09:38:07;;;;;;;4.55;4.18;;;;;;;;;;5036632;28;20112;-77
2023/09/03 09:40:35;;;;;;;5.25;4.75;;;;;;;;;;5036909;28;20021;-78
2023/09/03 09:43:01;;;;;;;5.60;4.72;;;;;;;;;;5036766;28;20558;-78
2023/09/03 09:45:30;;;;;;;5.38;4.97;;;;;;;;;;5037923;28;20375;-78
2023/09/03 09:47:55;;;;;;;;;;;;;;;;;;5037635;28;20024;-78
2023/09/03 09:50:30;;;;;;;6.93;4.40;;;;;;;;;;5037494;28;19984;-78
2023/09/03 09:52:56;;;;;;;6.35;4.25;;;;;;;;;;5036380;28;20033;-77
2023/09/03 09:55:21;;;;;;;4.78;4.13;;;;;;;;;;5034597;28;20409;-78
2023/09/03 09:57:49;;;;;;;10.13;4.32;;;;;;;;;;5037802;28;20079;-77
2023/09/03 10:00:30;;;;;;;7.65;6.88;;;;;;;;;;5036607;28;20032;-77
2023/09/03 10:02:56;;;;;;;4.93;3.80;;;;;;;;;;5036735;28;20360;-79
2023/09/03 10:05:21;;;;;;;6.25;3.58;;;;;;;;;;5037126;28;20025;-78
2023/09/03 10:07:47;;;;;;;4.28;3.72;;;;;;;;;;5018137;28;20041;-78
2023/09/03 10:10:13;;;;;;;3.85;3.55;;;;;;;;;;5036395;28;20041;-78
2023/09/03 10:12:38;;;;;;;4.72;4.32;;;;;;;;;;5038608;28;20032;-79
2023/09/03 10:15:04;;;;;;;5.88;3.72;;;;;;;;;;5037242;28;20048;-78
2023/09/03 10:17:29;;;;;;;4.07;3.65;;;;;;;;;;5022133;28;20094;-79
2023/09/03 10:19:59;;;;;;;4.15;3.70;;;;;;;;;;5040030;28;20033;-76
2023/09/03 10:22:24;;;;;;;5.38;4.28;;;;;;;;;;5039225;28;20025;-77
2023/09/03 10:24:55;;;;;;;4.75;4.35;;;;;;;;;;5042216;28;20386;-78
2023/09/03 10:27:24;;;;;;;5.18;3.65;;;;;;;;;;5039652;28;20455;-78
2023/09/03 10:29:50;;;;;;;4.55;4.05;;;;;;;;;;5040737;28;20040;-78
2023/09/03 10:32:16;;;;;;;5.03;3.50;;;;;;;;;;5037568;28;20070;-77
2023/09/03 10:34:42;;;;;;;4.50;4.10;;;;;;;;;;5040503;28;20040;-79
2023/09/03 10:37:07;;;;;;;3.80;3.50;;;;;;;;;;5041037;28;20033;-78
2023/09/03 10:39:33;;;;;;;4.18;3.70;;;;;;;;;;5040476;28;20514;-79
2023/09/03 10:42:28;;;;;;;4.60;4.20;;;;;;;;;;5040072;28;20021;-78
2023/09/03 10:44:54;;;;;;;4.53;3.47;;;;;;;;;;4917832;29;20047;-79
2023/09/03 10:47:19;;;;;;;4.32;3.92;;;;;;;;;;4921242;29;20027;-78
2023/09/03 10:49:46;;;;;;;4.50;4.13;;;;;;;;;;4927078;28;20539;-78
2023/09/03 10:52:26;;;;;;;5.13;4.63;;;;;;;;;;4934851;28;20185;-79
2023/09/03 10:55:09;;;;;;;4.47;4.15;;;;;;;;;;4935694;28;20531;-77
2023/09/03 10:57:35;;;;;;;4.70;4.03;;;;;;;;;;4934165;28;20035;-79
2023/09/03 11:00:02;;;;;;;6.70;4.22;;;;;;;;;;4934209;28;20110;-78
2023/09/03 11:02:28;;;;;;;3.88;3.45;;;;;;;;;;4936586;28;20046;-78
2023/09/03 11:05:12;;;;;;;4.78;4.30;;;;;;;;;;4934058;28;20478;-78
2023/09/03 11:07:38;;;;;;;12.65;11.73;;;;;;;;;;4933746;28;20047;-78
2023/09/03 11:10:24;;;;;;;4.88;4.50;;;;;;;;;;4937294;28;20038;-78
2023/09/03 11:12:50;;;;;;;8.55;7.85;;;;;;;;;;4932369;28;20027;-79
2023/09/03 11:15:15;;;;;;;8.27;7.68;;;;;;;;;;4938671;28;20054;-79
2023/09/03 11:17:41;;;;;;;9.02;8.23;;;;;;;;;;4936930;28;20047;-78
2023/09/03 11:20:08;;;;;;;4.82;4.43;;;;;;;;;;4933638;28;20032;-76
2023/09/03 11:22:37;;;;;;;4.43;4.00;;;;;;;;;;5017050;28;20037;-77
2023/09/03 11:25:02;;;;;;;;;;;;;;;;;;5019352;28;20426;-78
2023/09/03 11:27:28;;;;;;;4.30;3.90;;;;;;;;;;5018960;28;19993;-77
2023/09/03 11:30:03;;;;;;;3.50;3.20;;;;;;;;;;5017070;28;20496;-79
2023/09/03 11:32:36;;;;;;;4.20;3.80;;;;;;;;;;5017661;28;20064;-79
2023/09/03 11:35:01;;;;;;;4.22;3.92;;;;;;;;;;5016373;28;20712;-77
2023/09/03 11:37:26;;;;;;;4.40;4.00;;;;;;;;;;5018075;28;20041;-78
2023/09/03 11:39:52;;;;;;;5.10;3.75;;;;;;;;;;5018654;28;20334;-78
2023/09/03 11:42:17;;;;;;;4.30;3.92;;;;;;;;;;5015262;28;20034;-78
2023/09/03 11:44:43;;;;;;;4.20;3.90;;;;;;;;;;5004029;28;20092;-77
2023/09/03 11:47:08;;;;;;;5.13;4.72;;;;;;;;;;5001950;28;20394;-80
2023/09/03 11:49:34;;;;;;;5.97;3.92;;;;;;;;;;5015912;28;20053;-83
2023/09/03 11:52:12;;;;;;;4.20;3.90;;;;;;;;;;5027781;28;20033;-80
2023/09/03 11:54:38;;;;;;;4.68;3.53;;;;;;;;;;5040110;28;20037;-84
2023/09/03 11:57:05;;;;;;;6.22;4.03;;;;;;;;;;5039835;28;20087;-80
2023/09/03 11:59:31;;;;;;;4.05;3.75;;;;;;;;;;5034478;28;20017;-81
2023/09/03 12:01:56;;;;;;;4.10;3.70;;;;;;;;;;5034849;28;20033;-80
2023/09/03 12:04:22;;;;;;;3.97;3.67;;;;;;;;;;5010481;28;20088;-80
2023/09/03 12:06:47;;;;;;;8.23;4.10;;;;;;;;;;5026245;28;20463;-83
2023/09/03 12:09:13;;;;;;;5.80;3.78;;;;;;;;;;5021979;28;20424;-83
2023/09/03 12:11:38;;;;;;;4.18;3.88;;;;;;;;;;5024440;28;20047;-82
2023/09/03 12:14:07;;;;;;;4.07;3.67;;;;;;;;;;5025414;28;20025;-79
2023/09/03 12:16:44;;;;;;;3.90;3.50;;;;;;;;;;5024808;28;20344;-83
2023/09/03 12:19:10;;;;;;;3.95;3.65;;;;;;;;;;5023991;28;20108;-85
2023/09/03 12:21:35;;;;;;;4.13;3.63;;;;;;;;;;5020246;28;20100;-83
2023/09/03 12:24:10;;;;;;;3.70;3.40;;;;;;;;;;5022361;28;20021;-76
2023/09/03 12:26:35;;;;;;;3.90;3.60;;;;;;;;;;5023594;28;21100;-76
2023/09/03 12:29:03;;;;;;;3.45;3.25;;;;;;;;;;5026783;28;20032;-80
2023/09/03 12:31:41;;;;;;;4.67;4.27;;;;;;;;;;5027923;28;20027;-79
2023/09/03 12:34:07;;;;;;;6.43;3.70;;;;;;;;;;5024950;28;20064;-76
2023/09/03 12:36:32;;;;;;;3.85;3.55;;;;;;;;;;5026735;28;20070;-76
2023/09/03 12:38:59;;;;;;;4.50;3.85;;;;;;;;;;5025369;28;20035;-79
2023/09/03 12:41:25;;;;;;;4.10;3.30;;;;;;;;;;5025768;28;20075;-79
2023/09/03 12:43:51;;;;;;;13.40;4.38;;;;;;;;;;5022006;28;20448;-76
2023/09/03 12:46:16;;;;;;;5.90;3.78;;;;;;;;;;5025693;28;20029;-76
2023/09/03 12:48:45;;;;;;;4.75;3.72;;;;;;;;;;5024725;28;20490;-76
2023/09/03 12:51:16;;;;;;;4.25;3.85;;;;;;;;;;5024519;28;20091;-77
2023/09/03 12:53:42;;;;;;;5.57;3.40;;;;;;;;;;5001523;28;20044;-82
2023/09/03 12:56:07;;;;;;;4.70;3.53;;;;;;;;;;5023214;28;20029;-81
2023/09/03 12:58:33;;;;;;;4.05;3.65;;;;;;;;;;5023810;28;20025;-82
2023/09/03 13:00:59;;;;;;;4.10;3.70;;;;;;;;;;5022594;28;20037;-82
2023/09/03 13:03:25;;;;;;;4.30;3.90;;;;;;;;;;5023836;28;20028;-85
2023/09/03 13:05:50;;;;;;;4.88;4.13;;;;;;;;;;5024397;28;20021;-84
2023/09/03 13:08:16;;;;;;;4.53;4.13;;;;;;;;;;5019431;28;20422;-84
2023/09/03 13:10:42;;;;;;;4.30;4.00;;;;;;;;;;5021583;28;20032;-80
2023/09/03 13:13:08;;;;;;;8.55;6.22;;;;;;;;;;5025754;28;20025;-82
2023/09/03 13:15:33;;;;;;;5.32;4.93;;;;;;;;;;5022249;28;20060;-84
2023/09/03 13:17:59;;;;;;;4.35;4.05;;;;;;;;;;5023287;28;20029;-84
2023/09/03 13:20:24;;;;;;;4.30;3.90;;;;;;;;;;5021822;28;20025;-84
2023/09/03 13:22:49;;;;;;;4.55;4.15;;;;;;;;;;5021964;28;20026;-84
2023/09/03 13:25:15;;;;;;;5.07;4.00;;;;;;;;;;5021547;28;20115;-85
2023/09/03 13:27:40;;;;;;;4.30;3.92;;;;;;;;;;5022354;28;20029;-83
2023/09/03 13:30:06;;;;;;;4.78;4.30;;;;;;;;;;5022496;28;20475;-83
2023/09/03 13:32:31;;;;;;;4.15;3.80;;;;;;;;;;5020581;28;20029;-83
2023/09/03 13:34:57;;;;;;;3.42;3.13;;;;;;;;;;5020686;28;20036;-81
2023/09/03 13:37:22;;;;;;;3.95;3.55;;;;;;;;;;5022968;28;20031;-83
2023/09/03 13:39:47;;;;;;;4.15;3.50;;;;;;;;;;5035222;28;20082;-84
2023/09/03 13:42:13;;;;;;;4.90;4.10;;;;;;;;;;5023860;28;20463;-83
2023/09/03 13:44:38;;;;;;;4.32;4.03;;;;;;;;;;5020570;28;20077;-87
2023/09/03 13:47:03;;;;;;;4.25;3.85;;;;;;;;;;5023684;28;20056;-83
2023/09/03 13:49:29;;;;;;;4.07;3.75;;;;;;;;;;5023679;28;20091;-82
2023/09/03 13:51:55;;;;;;;4.95;4.00;;;;;;;;;;5022480;28;20061;-78
2023/09/03 13:54:20;;;;;;;4.13;3.72;;;;;;;;;;5023516;28;20321;-76
2023/09/03 13:56:46;;;;;;;9.35;3.95;;;;;;;;;;5024336;28;20439;-81
2023/09/03 13:59:11;;;;;;;6.00;4.13;;;;;;;;;;5005047;28;20443;-78
2023/09/03 14:01:40;;;;;;;4.95;4.55;;;;;;;;;;5021196;28;20044;-80
2023/09/03 14:04:05;;;;;;;;;;;;;;;;;;5023578;28;20120;-78
2023/09/03 14:06:30;;;;;;;8.30;7.60;;;;;;;;;;5025286;28;20326;-80
2023/09/03 14:08:59;;;;;;;7.28;6.68;;;;;;;;;;5004927;28;20036;-80
2023/09/03 14:11:24;;;;;;;5.45;4.93;;;;;;;;;;5024499;28;20077;-78
2023/09/03 14:13:49;;;;;;;4.32;3.92;;;;;;;;;;5023297;28;20067;-78
2023/09/03 14:16:15;;;;;;;4.68;4.07;;;;;;;;;;5021115;28;20028;-78
2023/09/03 14:18:41;;;;;;;6.43;3.75;;;;;;;;;;5001495;28;20033;-78
2023/09/03 14:21:07;;;;;;;4.93;4.43;;;;;;;;;;5021302;28;20078;-82
2023/09/03 14:23:32;;;;;;;5.75;4.20;;;;;;;;;;5020313;28;20037;-81
2023/09/03 14:25:57;;;;;;;5.45;4.30;;;;;;;;;;5019634;28;20065;-77
2023/09/03 14:28:23;;;;;;;6.05;3.83;;;;;;;;;;5017510;28;20012;-82
2023/09/03 14:30:48;;;;;;;6.15;4.50;;;;;;;;;;5019889;28;20059;-78
2023/09/03 14:33:14;;;;;;;6.07;5.25;;;;;;;;;;5017659;28;20036;-79
2023/09/03 14:35:39;;;;;;;10.80;9.63;;;;;;;;;;5020731;28;20033;-81